This is the latest recevied weather packets stored in our database for station/object WE1C. If no packets are shown the sender has not sent any weather packets the latest 10 day(s).
| Time | Temp. | Humidity | Pressure | Rain* | Wind** | Luminosity | Snow |
|---|---|---|---|---|---|---|---|
| 1777310229 | 18.89° C | 35% | 1053.4 hPa | 0 mm | - | 731 W/m² | - |
| 1777309926 | 18.33° C | 39% | 1053.4 hPa | 0 mm | - | 746 W/m² | - |
| 1777309624 | 18.33° C | 38% | 1053.5 hPa | 0 mm | - | 762 W/m² | - |
| 1777309321 | 18.33° C | 37% | 1053.5 hPa | 0 mm | - | 736 W/m² | - |
| 1777309019 | 17.78° C | 38% | 1053.5 hPa | 0 mm | - | 724 W/m² | - |
| 1777308715 | 17.78° C | 38% | 1053.5 hPa | 0 mm | - | 764 W/m² | - |
| 1777308410 | 18.33° C | 40% | 1053.7 hPa | 0 mm | - | 762 W/m² | - |
| 1777308106 | 18.89° C | 37% | 1053.6 hPa | 0 mm | - | 765 W/m² | - |
| 1777307804 | 18.33° C | 38% | 1053.6 hPa | 0 mm | - | 766 W/m² | - |
| 1777307501 | 18.33° C | 38% | 1053.6 hPa | 0 mm | - | 772 W/m² | - |
| 1777307198 | 18.89° C | 38% | 1053.8 hPa | 0 mm | - | 790 W/m² | - |
| 1777306895 | 18.33° C | 38% | 1053.7 hPa | 0 mm | - | 786 W/m² | - |
| 1777306592 | 17.78° C | 39% | 1053.7 hPa | 0 mm | - | 780 W/m² | - |
| 1777306288 | 17.78° C | 39% | 1053.7 hPa | 0 mm | - | 786 W/m² | - |
| 1777305983 | 17.78° C | 39% | 1054 hPa | 0 mm | - | 791 W/m² | - |
| 1777305680 | 17.78° C | 38% | 1053.7 hPa | 0 mm | - | 804 W/m² | - |
| 1777305376 | 17.22° C | 40% | 1053.8 hPa | 0 mm | - | 803 W/m² | - |
| 1777305076 | 16.67° C | 42% | 1054 hPa | 0 mm | - | 780 W/m² | - |
| 1777304770 | 17.22° C | 43% | 1053.9 hPa | 0 mm | - | 740 W/m² | - |
| 1777304468 | 17.78° C | 39% | 1053.8 hPa | 0 mm | - | 761 W/m² | - |
| 1777304166 | 17.22° C | 40% | 1053.9 hPa | 0 mm | - | 800 W/m² | - |
| 1777303862 | 17.22° C | 39% | 1053.9 hPa | 0 mm | - | 821 W/m² | - |
| 1777303560 | 16.67° C | 43% | 1054.1 hPa | 0 mm | - | 843 W/m² | - |
| 1777303257 | 16.67° C | 41% | 1053.9 hPa | 0 mm | - | 861 W/m² | - |
| 1777302955 | 16.67° C | 42% | 1054.1 hPa | 0 mm | - | 858 W/m² | - |
* Rain latest hour (hover to see other rain measurements)
** Current wind speed in m/s (hover to see current wind gust speed)